createdAt,value
2018-01-28T00:01:45.528Z,18.53
2018-01-28T00:04:11.385Z,18.53
2018-01-28T00:06:37.177Z,18.46
2018-01-28T00:09:03.016Z,18.49
2018-01-28T00:11:28.789Z,18.47
2018-01-28T00:13:54.736Z,18.46
2018-01-28T00:16:21.536Z,18.28
2018-01-28T00:18:48.326Z,18.38
2018-01-28T00:21:15.112Z,18.34
2018-01-28T00:23:40.880Z,18.44
2018-01-28T00:26:06.862Z,18.56
2018-01-28T00:28:32.650Z,18.50
2018-01-28T00:30:58.427Z,18.55
2018-01-28T00:33:25.170Z,18.40
2018-01-28T00:35:51.957Z,18.33
2018-01-28T00:38:17.873Z,18.09
2018-01-28T00:40:43.728Z,18.36
2018-01-28T00:43:09.509Z,18.27
2018-01-28T00:45:35.324Z,18.63
2018-01-28T00:48:01.109Z,18.65
2018-01-28T00:50:26.917Z,18.51
2018-01-28T00:52:53.877Z,18.66
2018-01-28T00:55:19.657Z,18.69
2018-01-28T00:57:45.438Z,18.55
2018-01-28T01:00:13.201Z,18.50
2018-01-28T01:02:38.982Z,18.55
2018-01-28T01:05:04.757Z,18.67
2018-01-28T01:07:30.568Z,18.60
2018-01-28T01:09:56.353Z,18.69
2018-01-28T01:12:22.657Z,18.66
2018-01-28T01:14:48.466Z,18.69
2018-01-28T01:17:14.245Z,18.56
2018-01-28T01:19:40.029Z,18.57
2018-01-28T01:22:05.806Z,18.76
2018-01-28T01:24:31.589Z,18.68
2018-01-28T01:26:57.359Z,18.61
2018-01-28T01:29:24.000Z,18.53
2018-01-28T01:31:49.773Z,18.45
2018-01-28T01:34:15.554Z,18.61
2018-01-28T01:36:42.252Z,18.53
2018-01-28T01:39:08.021Z,18.37
2018-01-28T01:41:33.798Z,18.55
2018-01-28T01:43:59.613Z,18.40
2018-01-28T01:46:26.303Z,18.49
2018-01-28T01:48:52.074Z,18.57
2018-01-28T01:51:18.830Z,18.40
2018-01-28T01:53:45.533Z,18.47
2018-01-28T01:56:11.350Z,18.45
2018-01-28T01:58:37.124Z,18.59
2018-01-28T02:01:03.750Z,18.42
2018-01-28T02:03:34.565Z,18.61
2018-01-28T02:06:00.347Z,18.54
2018-01-28T02:08:26.140Z,18.57
2018-01-28T02:10:51.917Z,18.53
2018-01-28T02:13:17.698Z,18.53
2018-01-28T02:15:43.521Z,18.47
2018-01-28T02:18:09.302Z,18.55
2018-01-28T02:20:35.081Z,18.60
2018-01-28T02:23:00.861Z,18.48
2018-01-28T02:25:26.640Z,18.60
2018-01-28T02:27:52.417Z,18.62
2018-01-28T02:30:18.197Z,18.54
2018-01-28T02:32:43.998Z,18.49
2018-01-28T02:35:09.781Z,18.48
2018-01-28T02:37:35.565Z,18.55
2018-01-28T02:40:01.341Z,18.78
2018-01-28T02:42:27.121Z,18.76
2018-01-28T02:44:52.904Z,18.82
2018-01-28T02:47:18.682Z,18.80
2018-01-28T02:49:44.474Z,18.76
2018-01-28T02:52:10.289Z,18.78
2018-01-28T02:54:36.077Z,18.79
2018-01-28T02:57:01.861Z,18.76
2018-01-28T02:59:27.658Z,18.72
2018-01-28T03:01:53.435Z,18.73
2018-01-28T03:04:19.350Z,18.68
2018-01-28T03:06:45.123Z,18.80
2018-01-28T03:09:10.902Z,18.63
2018-01-28T03:11:36.684Z,18.74
2018-01-28T03:14:02.463Z,18.67
2018-01-28T03:16:28.277Z,18.68
2018-01-28T03:18:54.053Z,18.58
2018-01-28T03:21:19.969Z,18.67
2018-01-28T03:23:45.746Z,18.74
2018-01-28T03:26:11.522Z,18.60
2018-01-28T03:28:37.293Z,18.73
2018-01-28T03:31:03.085Z,18.75
2018-01-28T03:33:28.882Z,18.77
2018-01-28T03:35:54.669Z,18.67
2018-01-28T03:38:20.512Z,18.68
2018-01-28T03:40:46.293Z,18.62
2018-01-28T03:43:12.063Z,18.71
2018-01-28T03:45:37.849Z,18.70
2018-01-28T03:48:03.760Z,18.65
2018-01-28T03:50:29.538Z,18.68
2018-01-28T03:52:55.321Z,18.55
2018-01-28T03:55:21.106Z,18.63
2018-01-28T03:57:46.888Z,18.57
2018-01-28T04:00:12.716Z,18.60
2018-01-28T04:02:38.498Z,18.62
2018-01-28T04:05:04.278Z,18.63
2018-01-28T04:07:30.061Z,18.75
2018-01-28T04:09:55.842Z,18.65
2018-01-28T04:12:21.622Z,18.68
2018-01-28T04:14:47.473Z,18.62
2018-01-28T04:17:13.249Z,18.68
2018-01-28T04:19:39.030Z,18.64
2018-01-28T04:22:04.845Z,18.67
2018-01-28T04:24:30.628Z,18.68
2018-01-28T04:26:56.549Z,18.61
2018-01-28T04:29:23.165Z,18.61
2018-01-28T04:31:48.945Z,18.66
2018-01-28T04:34:14.726Z,18.69
2018-01-28T04:36:40.505Z,18.68
2018-01-28T04:39:06.317Z,18.61
2018-01-28T04:41:32.082Z,18.64
2018-01-28T04:43:57.862Z,18.76
2018-01-28T04:46:23.709Z,18.96
2018-01-28T04:48:49.484Z,19.08
2018-01-28T04:51:15.300Z,18.87
2018-01-28T04:53:41.085Z,18.98
2018-01-28T04:56:06.857Z,18.91
2018-01-28T04:58:32.649Z,18.95
2018-01-28T05:00:58.441Z,18.98
2018-01-28T05:03:24.217Z,18.96
2018-01-28T05:05:50.009Z,18.85
2018-01-28T05:08:15.836Z,18.99
2018-01-28T05:10:41.666Z,18.94
2018-01-28T05:13:07.500Z,18.82
2018-01-28T05:15:33.337Z,18.98
2018-01-28T05:17:59.121Z,18.91
2018-01-28T05:20:24.941Z,18.96
2018-01-28T05:22:50.714Z,18.82
2018-01-28T05:25:16.493Z,18.93
2018-01-28T05:27:42.274Z,18.83
2018-01-28T05:30:08.048Z,18.88
2018-01-28T05:32:33.822Z,18.91
2018-01-28T05:34:59.609Z,18.81
2018-01-28T05:37:25.388Z,18.88
2018-01-28T05:39:51.224Z,18.93
2018-01-28T05:42:17.020Z,18.91
2018-01-28T05:44:42.847Z,18.69
2018-01-28T05:47:08.660Z,18.70
2018-01-28T05:49:34.488Z,18.83
2018-01-28T05:52:00.281Z,18.81
2018-01-28T05:54:26.058Z,18.84
2018-01-28T05:56:52.733Z,18.78
2018-01-28T05:59:18.514Z,18.81
2018-01-28T06:01:44.313Z,18.91
2018-01-28T06:04:10.098Z,18.85
2018-01-28T06:06:35.874Z,18.80
2018-01-28T06:09:01.652Z,18.96
2018-01-28T06:11:27.430Z,18.97
2018-01-28T06:13:53.205Z,19.04
2018-01-28T06:16:18.989Z,18.88
2018-01-28T06:18:44.774Z,18.85
2018-01-28T06:21:10.570Z,18.79
2018-01-28T06:23:36.363Z,18.66
2018-01-28T06:26:02.169Z,18.71
2018-01-28T06:28:27.949Z,18.80
2018-01-28T06:30:53.726Z,18.75
2018-01-28T06:33:19.504Z,18.71
2018-01-28T06:35:45.297Z,18.74
2018-01-28T06:38:11.114Z,18.70
2018-01-28T06:40:36.885Z,18.71
2018-01-28T06:43:02.663Z,18.67
2018-01-28T06:45:28.442Z,18.83
2018-01-28T06:47:54.222Z,18.93
2018-01-28T06:50:20.041Z,18.97
2018-01-28T06:52:45.821Z,19.06
2018-01-28T06:55:11.598Z,19.06
2018-01-28T06:57:37.379Z,18.94
2018-01-28T07:00:03.194Z,18.93
2018-01-28T07:02:29.016Z,18.98
2018-01-28T07:04:54.792Z,19.06
2018-01-28T07:07:20.607Z,19.05
2018-01-28T07:09:46.386Z,18.95
2018-01-28T07:12:12.297Z,18.94
2018-01-28T07:14:38.157Z,18.99
2018-01-28T07:17:03.951Z,19.03
2018-01-28T07:19:29.761Z,18.79
2018-01-28T07:21:55.537Z,18.84
2018-01-28T07:24:21.384Z,19.01
2018-01-28T07:26:47.217Z,19.04
2018-01-28T07:29:13.025Z,18.98
2018-01-28T07:31:38.796Z,18.82
2018-01-28T07:34:04.624Z,18.87
2018-01-28T07:36:30.573Z,18.53
2018-01-28T07:38:56.381Z,18.64
2018-01-28T07:41:22.153Z,18.62
2018-01-28T07:43:47.929Z,18.66
2018-01-28T07:46:13.709Z,18.71
2018-01-28T07:48:39.494Z,18.96
2018-01-28T07:51:05.281Z,18.70
2018-01-28T07:53:31.113Z,18.72
2018-01-28T07:55:56.893Z,18.48
2018-01-28T07:58:22.731Z,18.48
2018-01-28T08:00:48.513Z,18.55
2018-01-28T08:03:14.338Z,18.82
2018-01-28T08:05:40.332Z,18.65
2018-01-28T08:08:06.133Z,18.66
2018-01-28T08:10:31.966Z,18.79
2018-01-28T08:12:58.597Z,18.67
2018-01-28T08:15:24.374Z,18.64
2018-01-28T08:17:50.148Z,18.82
2018-01-28T08:20:15.954Z,18.97
2018-01-28T08:22:41.758Z,19.16
2018-01-28T08:25:07.560Z,19.11
2018-01-28T08:30:33.449Z,19.12
2018-01-28T08:32:59.277Z,18.97
2018-01-28T08:35:25.099Z,19.12
2018-01-28T08:37:57.889Z,18.93
2018-01-28T08:40:23.666Z,19.01
2018-01-28T08:42:49.489Z,19.14
2018-01-28T08:45:15.274Z,19.00
2018-01-28T08:47:41.100Z,18.98
2018-01-28T08:50:06.885Z,19.04
2018-01-28T08:52:32.668Z,19.09
2018-01-28T08:54:58.449Z,18.83
2018-01-28T08:57:24.237Z,18.95
2018-01-28T08:59:50.021Z,18.91
2018-01-28T09:02:15.797Z,18.93
2018-01-28T09:04:41.736Z,18.89
2018-01-28T09:07:07.522Z,18.94
2018-01-28T09:09:34.390Z,18.97
2018-01-28T09:12:00.177Z,18.86
2018-01-28T09:14:25.962Z,18.83
2018-01-28T09:16:51.760Z,18.82
2018-01-28T09:19:17.542Z,18.90
2018-01-28T09:21:43.313Z,18.83
2018-01-28T09:24:09.093Z,18.77
2018-01-28T09:26:35.870Z,18.70
2018-01-28T09:29:01.687Z,18.78
2018-01-28T09:31:27.480Z,18.88
2018-01-28T09:33:53.294Z,18.93
2018-01-28T09:36:19.083Z,18.89
2018-01-28T09:38:44.870Z,18.88
2018-01-28T09:41:10.667Z,18.84
2018-01-28T09:43:36.454Z,18.90
2018-01-28T09:46:02.250Z,19.14
2018-01-28T09:48:28.034Z,19.28
2018-01-28T09:50:53.867Z,19.39
2018-01-28T09:53:19.650Z,19.38
2018-01-28T09:55:45.437Z,19.24
2018-01-28T09:58:11.220Z,19.31
2018-01-28T10:00:37.010Z,19.16
2018-01-28T10:03:02.802Z,19.23
2018-01-28T10:05:28.594Z,19.31
2018-01-28T10:07:54.398Z,19.31
2018-01-28T10:10:20.179Z,19.31
2018-01-28T10:12:46.126Z,19.27
2018-01-28T10:15:11.914Z,19.35
2018-01-28T10:17:37.701Z,18.98
2018-01-28T10:20:03.588Z,19.00
2018-01-28T10:22:29.500Z,19.07
2018-01-28T10:24:55.321Z,19.20
2018-01-28T10:27:21.102Z,19.28
2018-01-28T10:29:46.885Z,19.11
2018-01-28T10:32:12.671Z,19.03
2018-01-28T10:34:38.454Z,19.00
2018-01-28T10:37:04.238Z,18.93
2018-01-28T10:39:30.013Z,18.98
2018-01-28T10:41:55.794Z,18.99
2018-01-28T10:44:21.607Z,19.00
2018-01-28T10:46:47.422Z,19.21
2018-01-28T10:49:13.206Z,19.19
2018-01-28T10:51:38.992Z,19.22
2018-01-28T10:54:04.781Z,19.23
2018-01-28T10:56:30.558Z,19.06
2018-01-28T10:58:56.333Z,18.98
2018-01-28T11:01:22.329Z,18.94
2018-01-28T11:03:48.111Z,19.06
2018-01-28T11:06:13.894Z,19.08
2018-01-28T11:08:39.678Z,19.21
2018-01-28T11:11:05.461Z,19.24
2018-01-28T11:13:31.249Z,19.00
2018-01-28T11:15:57.039Z,19.00
2018-01-28T11:18:22.874Z,19.09
2018-01-28T11:20:48.710Z,19.14
2018-01-28T11:23:14.533Z,19.04
2018-01-28T11:25:40.349Z,19.06
2018-01-28T11:28:06.149Z,19.10
2018-01-28T11:30:32.028Z,19.12
2018-01-28T11:32:58.687Z,19.18
2018-01-28T11:35:24.471Z,19.30
2018-01-28T11:37:50.301Z,19.32
2018-01-28T11:40:16.139Z,19.38
2018-01-28T11:42:42.286Z,19.39
2018-01-28T11:45:08.070Z,19.38
2018-01-28T11:47:33.857Z,19.53
2018-01-28T11:49:59.639Z,19.32
2018-01-28T11:52:26.871Z,19.17
2018-01-28T11:54:53.302Z,19.18
2018-01-28T11:57:19.090Z,19.33
2018-01-28T11:59:44.869Z,19.37
2018-01-28T12:02:10.654Z,19.47
2018-01-28T12:04:36.437Z,19.24
2018-01-28T12:07:02.221Z,19.34
2018-01-28T12:09:28.002Z,19.32
2018-01-28T12:11:53.781Z,19.23
2018-01-28T12:14:19.781Z,19.12
2018-01-28T12:16:45.610Z,19.14
2018-01-28T12:19:11.389Z,19.24
2018-01-28T12:21:37.990Z,19.09
2018-01-28T12:24:03.776Z,19.17
2018-01-28T12:26:29.565Z,19.20
2018-01-28T12:28:55.349Z,19.20
2018-01-28T12:31:21.174Z,19.17
2018-01-28T12:33:46.983Z,19.13
2018-01-28T12:36:12.766Z,19.05
2018-01-28T12:38:38.542Z,19.18
2018-01-28T12:41:04.325Z,19.21
2018-01-28T12:43:30.112Z,19.22
2018-01-28T12:45:55.894Z,19.31
2018-01-28T12:48:21.678Z,19.39
2018-01-28T12:50:47.638Z,19.25
2018-01-28T12:53:13.419Z,19.24
2018-01-28T12:55:39.198Z,19.11
2018-01-28T12:58:04.982Z,19.25
2018-01-28T13:00:30.766Z,19.23
2018-01-28T13:02:56.550Z,19.04
2018-01-28T13:05:22.327Z,18.94
2018-01-28T13:07:48.111Z,18.91
2018-01-28T13:10:13.909Z,18.85
2018-01-28T13:12:39.725Z,18.97
2018-01-28T13:15:05.503Z,19.17
2018-01-28T13:17:31.317Z,19.11
2018-01-28T13:19:57.106Z,19.29
2018-01-28T13:22:22.924Z,19.19
2018-01-28T13:24:48.779Z,19.16
2018-01-28T13:27:14.554Z,19.18
2018-01-28T13:29:40.348Z,19.11
2018-01-28T13:32:06.165Z,19.17
2018-01-28T13:34:31.938Z,19.10
2018-01-28T13:36:57.781Z,19.18
2018-01-28T13:39:23.571Z,19.06
2018-01-28T13:41:49.384Z,19.23
2018-01-28T13:44:15.170Z,19.41
2018-01-28T13:46:40.961Z,19.47
2018-01-28T13:49:06.890Z,19.52
2018-01-28T13:51:32.683Z,19.57
2018-01-28T13:53:58.478Z,19.57
2018-01-28T13:56:24.277Z,19.62
2018-01-28T13:58:50.072Z,19.51
2018-01-28T14:01:15.904Z,19.38
2018-01-28T14:03:41.698Z,19.46
2018-01-28T14:06:07.497Z,19.47
2018-01-28T14:08:33.296Z,19.48
2018-01-28T14:10:59.233Z,19.50
2018-01-28T14:13:25.138Z,19.40
2018-01-28T14:15:50.934Z,19.45
2018-01-28T14:18:16.729Z,19.44
2018-01-28T14:20:42.544Z,19.38
2018-01-28T14:23:08.759Z,19.25
2018-01-28T14:25:34.561Z,19.17
2018-01-28T14:28:00.486Z,19.27
2018-01-28T14:30:26.610Z,19.36
2018-01-28T14:32:52.419Z,19.37
2018-01-28T14:35:18.332Z,19.34
2018-01-28T14:37:44.125Z,19.36
2018-01-28T14:40:10.386Z,19.39
2018-01-28T14:42:37.167Z,19.32
2018-01-28T14:45:04.618Z,19.37
2018-01-28T14:47:32.601Z,19.39
2018-01-28T15:03:51.434Z,19.06
2018-01-28T15:06:17.234Z,19.19
2018-01-28T15:08:43.459Z,19.26
2018-01-28T15:11:09.276Z,19.26
2018-01-28T15:13:41.705Z,19.41
2018-01-28T15:16:09.467Z,19.31
2018-01-28T15:18:35.558Z,19.32
2018-01-28T15:21:01.362Z,19.26
2018-01-28T15:23:27.157Z,19.27
2018-01-28T15:25:53.103Z,19.32
2018-01-28T15:28:19.920Z,19.39
2018-01-28T15:30:45.702Z,19.30
2018-01-28T15:33:11.495Z,19.05
2018-01-28T15:35:38.549Z,19.05
2018-01-28T15:38:04.337Z,18.95
2018-01-28T15:40:30.158Z,19.02
2018-01-28T15:42:57.078Z,19.01
2018-01-28T15:45:23.886Z,19.08
2018-01-28T15:47:50.514Z,19.24
2018-01-28T15:50:16.521Z,19.05
2018-01-28T15:52:44.641Z,19.18
2018-01-28T15:55:10.525Z,19.50
2018-01-28T15:57:42.290Z,19.26
2018-01-28T16:00:08.341Z,19.09
2018-01-28T16:02:40.343Z,19.22
2018-01-28T16:05:06.345Z,19.34
2018-01-28T16:07:32.822Z,19.30
2018-01-28T16:09:58.645Z,19.03
2018-01-28T16:12:24.488Z,18.83
2018-01-28T16:14:50.305Z,18.79
2018-01-28T16:17:16.091Z,18.64
2018-01-28T16:19:42.033Z,18.77
2018-01-28T16:22:07.809Z,18.87
2018-01-28T16:24:33.597Z,19.00
2018-01-28T16:26:59.395Z,19.17
2018-01-28T16:29:25.264Z,19.03
2018-01-28T16:31:51.045Z,19.23
2018-01-28T16:34:17.386Z,19.24
2018-01-28T16:36:43.169Z,19.10
2018-01-28T16:39:08.965Z,19.17
2018-01-28T16:41:34.754Z,19.20
2018-01-28T16:44:00.549Z,19.28
2018-01-28T16:46:26.370Z,19.28
2018-01-28T16:48:52.156Z,19.30
2018-01-28T16:51:18.007Z,19.13
2018-01-28T16:53:43.791Z,19.16
2018-01-28T16:56:09.762Z,19.29
2018-01-28T16:58:35.651Z,19.44
2018-01-28T17:01:01.421Z,19.48
2018-01-28T17:03:27.201Z,19.49
2018-01-28T17:05:52.989Z,19.56
2018-01-28T17:08:18.790Z,19.56
2018-01-28T17:10:44.579Z,19.63
2018-01-28T17:13:11.378Z,19.67
2018-01-28T17:15:37.169Z,19.64
2018-01-28T17:18:02.967Z,19.64
2018-01-28T17:20:28.758Z,19.62
2018-01-28T17:22:54.638Z,19.67
2018-01-28T17:25:20.455Z,19.66
2018-01-28T17:27:46.383Z,19.44
2018-01-28T17:30:12.161Z,19.54
2018-01-28T17:32:40.638Z,19.54
2018-01-28T17:35:12.717Z,19.59
2018-01-28T17:37:38.550Z,19.46
2018-01-28T17:40:04.383Z,19.58
2018-01-28T17:42:30.162Z,19.56
2018-01-28T17:44:55.941Z,19.55
2018-01-28T17:47:21.727Z,19.53
2018-01-28T17:49:47.502Z,19.44
2018-01-28T17:52:13.278Z,19.52
2018-01-28T17:54:39.061Z,19.38
2018-01-28T17:57:04.845Z,19.41
2018-01-28T17:59:30.622Z,19.18
2018-01-28T18:01:56.404Z,19.17
2018-01-28T18:04:22.186Z,18.94
2018-01-28T18:06:47.969Z,18.75
2018-01-28T18:09:13.810Z,18.67
2018-01-28T18:11:39.590Z,18.50
2018-01-28T18:14:05.366Z,18.54
2018-01-28T18:16:31.377Z,18.61
2018-01-28T18:18:57.164Z,18.80
2018-01-28T18:21:22.971Z,18.81
2018-01-28T18:23:48.749Z,18.81
2018-01-28T18:26:14.538Z,18.85
2018-01-28T18:28:40.325Z,18.80
2018-01-28T18:31:06.153Z,18.77
2018-01-28T18:33:32.075Z,18.75
2018-01-28T18:35:57.853Z,18.68
2018-01-28T18:38:23.817Z,18.70
2018-01-28T18:40:49.734Z,18.71
2018-01-28T18:43:15.505Z,18.70
2018-01-28T18:45:41.277Z,18.68
2018-01-28T18:48:07.175Z,18.83
2018-01-28T18:50:32.954Z,18.78
2018-01-28T18:52:58.792Z,18.98
2018-01-28T18:55:24.574Z,18.76
2018-01-28T18:57:50.384Z,18.70
2018-01-28T19:00:16.254Z,18.84
2018-01-28T19:02:42.030Z,18.72
2018-01-28T19:05:07.829Z,18.64
2018-01-28T19:07:33.742Z,18.62
2018-01-28T19:09:59.521Z,18.67
2018-01-28T19:12:25.298Z,18.71
2018-01-28T19:14:51.072Z,18.83
2018-01-28T19:17:17.002Z,18.80
2018-01-28T19:19:42.785Z,18.71
2018-01-28T19:22:08.737Z,18.72
2018-01-28T19:24:34.513Z,18.61
2018-01-28T19:27:00.293Z,18.86
2018-01-28T19:29:26.069Z,19.05
2018-01-28T19:31:51.854Z,19.01
2018-01-28T19:34:17.625Z,18.91
2018-01-28T19:36:43.419Z,18.77
2018-01-28T19:39:09.328Z,18.76
2018-01-28T19:41:35.105Z,18.58
2018-01-28T19:44:00.877Z,18.60
2018-01-28T19:46:26.653Z,18.53
2018-01-28T19:48:52.557Z,18.49
2018-01-28T19:51:18.346Z,18.44
2018-01-28T19:53:44.297Z,18.46
2018-01-28T19:56:10.090Z,18.35
2018-01-28T19:58:35.877Z,18.44
2018-01-28T20:01:02.370Z,18.48
2018-01-28T20:03:28.172Z,18.40
2018-01-28T20:05:53.945Z,18.37
2018-01-28T20:08:19.735Z,18.25
2018-01-28T20:10:45.552Z,18.30
2018-01-28T20:13:11.337Z,18.30
2018-01-28T20:15:37.165Z,18.23
2018-01-28T20:18:02.945Z,18.19
2018-01-28T20:20:28.764Z,18.18
2018-01-28T20:22:54.545Z,18.34
2018-01-28T20:25:20.469Z,18.25
2018-01-28T20:27:46.258Z,18.34
2018-01-28T20:30:12.070Z,18.34
2018-01-28T20:32:37.861Z,18.43
2018-01-28T20:35:03.655Z,18.25
2018-01-28T20:37:29.497Z,18.43
2018-01-28T20:39:55.277Z,18.37
2018-01-28T20:42:21.197Z,18.33
2018-01-28T20:44:48.793Z,18.33
2018-01-28T20:47:15.109Z,18.27
2018-01-28T20:49:40.928Z,18.25
2018-01-28T20:52:06.709Z,18.38
2018-01-28T20:57:07.922Z,18.32
2018-01-28T20:59:33.702Z,18.39
2018-01-28T21:01:59.487Z,18.41
2018-01-28T21:04:25.306Z,18.62
2018-01-28T21:06:51.081Z,18.88
2018-01-28T21:09:16.893Z,18.80
2018-01-28T21:11:42.665Z,18.63
2018-01-28T21:14:08.445Z,18.61
2018-01-28T21:16:34.226Z,18.66
2018-01-28T21:18:59.997Z,18.49
2018-01-28T21:21:25.782Z,18.47
2018-01-28T21:23:51.601Z,18.66
2018-01-28T21:26:17.546Z,18.76
2018-01-28T21:28:43.379Z,18.99
2018-01-28T21:31:09.268Z,18.99
2018-01-28T21:33:35.037Z,19.11
2018-01-28T21:36:00.816Z,19.03
2018-01-28T21:38:26.734Z,19.13
2018-01-28T21:40:52.553Z,19.13
2018-01-28T21:43:18.368Z,19.01
2018-01-28T21:45:44.158Z,19.13
2018-01-28T21:48:09.989Z,19.20
2018-01-28T21:50:35.770Z,19.19
2018-01-28T21:53:01.585Z,19.11
2018-01-28T21:55:27.954Z,19.24
2018-01-28T21:58:00.380Z,19.26
2018-01-28T22:00:29.891Z,19.13
2018-01-28T22:02:56.268Z,19.14
2018-01-28T22:05:22.792Z,19.04
2018-01-28T22:07:52.047Z,19.13
2018-01-28T22:10:18.773Z,19.12
2018-01-28T22:12:45.537Z,18.99
2018-01-28T22:15:12.160Z,19.17
2018-01-28T22:17:41.614Z,19.02
2018-01-28T22:20:08.256Z,19.11
2018-01-28T22:22:34.613Z,19.06
2018-01-28T22:25:01.258Z,18.94
2018-01-28T22:27:34.366Z,19.06
2018-01-28T22:30:00.327Z,19.10
2018-01-28T22:32:30.302Z,19.06
2018-01-28T22:34:56.480Z,19.08
2018-01-28T22:37:22.274Z,18.97
2018-01-28T22:39:48.053Z,18.91
2018-01-28T22:42:13.825Z,19.21
2018-01-28T22:44:41.149Z,19.27
2018-01-28T22:47:06.952Z,19.38
2018-01-28T22:49:32.730Z,19.41
2018-01-28T22:51:58.502Z,19.41
2018-01-28T22:54:24.314Z,19.54
2018-01-28T22:56:50.077Z,19.50
2018-01-28T22:59:15.881Z,19.39
2018-01-28T23:01:41.796Z,19.29
2018-01-28T23:04:08.360Z,19.37
2018-01-28T23:06:34.140Z,19.27
2018-01-28T23:09:00.050Z,19.42
2018-01-28T23:11:25.821Z,19.37
2018-01-28T23:13:51.600Z,19.38
2018-01-28T23:16:17.378Z,19.36
2018-01-28T23:18:43.152Z,19.42
2018-01-28T23:21:08.938Z,19.38
2018-01-28T23:23:34.717Z,19.36
2018-01-28T23:26:00.725Z,19.33
2018-01-28T23:28:26.497Z,19.25
2018-01-28T23:30:52.277Z,19.25
2018-01-28T23:33:18.186Z,19.34
2018-01-28T23:35:44.017Z,19.37
2018-01-28T23:38:09.796Z,19.37
2018-01-28T23:40:35.570Z,19.32
2018-01-28T23:43:08.432Z,19.41
2018-01-28T23:45:34.206Z,19.38
2018-01-28T23:47:59.969Z,19.33
2018-01-28T23:50:25.742Z,19.30
2018-01-28T23:52:51.518Z,19.39
2018-01-28T23:55:17.377Z,19.18
2018-01-28T23:57:43.257Z,19.10
